sensor_id;sensor_type;location;lat;lon;timestamp;P1;durP1;ratioP1;P2;durP2;ratioP2
5795;SDS011;2924;51.458;7.046;2023-03-25T00:02:21;2.00;;;0.90;;
5795;SDS011;2924;51.458;7.046;2023-03-25T00:04:50;3.47;;;0.73;;
5795;SDS011;2924;51.458;7.046;2023-03-25T00:07:17;1.40;;;0.70;;
5795;SDS011;2924;51.458;7.046;2023-03-25T00:09:44;3.63;;;1.00;;
5795;SDS011;2924;51.458;7.046;2023-03-25T00:12:10;2.17;;;0.90;;
5795;SDS011;2924;51.458;7.046;2023-03-25T00:14:36;5.70;;;1.30;;
5795;SDS011;2924;51.458;7.046;2023-03-25T00:17:03;4.17;;;0.83;;
5795;SDS011;2924;51.458;7.046;2023-03-25T00:19:30;2.93;;;0.70;;
5795;SDS011;2924;51.458;7.046;2023-03-25T00:21:57;0.83;;;0.40;;
5795;SDS011;2924;51.458;7.046;2023-03-25T00:24:23;3.57;;;1.20;;
5795;SDS011;2924;51.458;7.046;2023-03-25T00:26:49;5.33;;;0.80;;
5795;SDS011;2924;51.458;7.046;2023-03-25T00:29:15;1.73;;;0.60;;
5795;SDS011;2924;51.458;7.046;2023-03-25T00:31:42;0.93;;;0.50;;
5795;SDS011;2924;51.458;7.046;2023-03-25T00:34:08;1.43;;;0.53;;
5795;SDS011;2924;51.458;7.046;2023-03-25T00:36:38;3.40;;;0.73;;
5795;SDS011;2924;51.458;7.046;2023-03-25T00:39:05;3.40;;;1.17;;
5795;SDS011;2924;51.458;7.046;2023-03-25T00:41:32;2.87;;;0.73;;
5795;SDS011;2924;51.458;7.046;2023-03-25T00:43:59;2.93;;;0.93;;
5795;SDS011;2924;51.458;7.046;2023-03-25T00:46:26;4.43;;;2.40;;
5795;SDS011;2924;51.458;7.046;2023-03-25T00:48:53;2.57;;;0.70;;
5795;SDS011;2924;51.458;7.046;2023-03-25T00:51:20;5.00;;;0.90;;
5795;SDS011;2924;51.458;7.046;2023-03-25T00:53:47;5.90;;;1.10;;
5795;SDS011;2924;51.458;7.046;2023-03-25T00:56:18;2.80;;;1.00;;
5795;SDS011;2924;51.458;7.046;2023-03-25T00:58:44;1.23;;;0.73;;
5795;SDS011;2924;51.458;7.046;2023-03-25T01:01:13;5.60;;;0.67;;
5795;SDS011;2924;51.458;7.046;2023-03-25T01:03:47;4.00;;;0.70;;
5795;SDS011;2924;51.458;7.046;2023-03-25T01:06:21;7.00;;;0.70;;
5795;SDS011;2924;51.458;7.046;2023-03-25T01:08:50;4.63;;;1.80;;
5795;SDS011;2924;51.458;7.046;2023-03-25T01:11:18;1.63;;;0.70;;
5795;SDS011;2924;51.458;7.046;2023-03-25T01:13:45;3.20;;;0.77;;
5795;SDS011;2924;51.458;7.046;2023-03-25T01:16:11;8.50;;;0.90;;
5795;SDS011;2924;51.458;7.046;2023-03-25T01:18:36;4.77;;;0.80;;
5795;SDS011;2924;51.458;7.046;2023-03-25T01:21:06;9.23;;;1.27;;
5795;SDS011;2924;51.458;7.046;2023-03-25T01:23:32;6.90;;;1.23;;
5795;SDS011;2924;51.458;7.046;2023-03-25T01:25:59;5.70;;;1.13;;
5795;SDS011;2924;51.458;7.046;2023-03-25T01:28:25;2.97;;;0.60;;
5795;SDS011;2924;51.458;7.046;2023-03-25T01:30:52;2.33;;;0.80;;
5795;SDS011;2924;51.458;7.046;2023-03-25T01:33:28;7.30;;;0.80;;
5795;SDS011;2924;51.458;7.046;2023-03-25T01:35:54;10.97;;;0.90;;
5795;SDS011;2924;51.458;7.046;2023-03-25T01:38:20;4.00;;;0.70;;
5795;SDS011;2924;51.458;7.046;2023-03-25T01:40:46;3.00;;;0.90;;
5795;SDS011;2924;51.458;7.046;2023-03-25T01:43:12;1.30;;;0.90;;
5795;SDS011;2924;51.458;7.046;2023-03-25T01:45:39;5.70;;;1.00;;
5795;SDS011;2924;51.458;7.046;2023-03-25T01:48:07;3.90;;;1.20;;
5795;SDS011;2924;51.458;7.046;2023-03-25T01:50:37;4.30;;;0.87;;
5795;SDS011;2924;51.458;7.046;2023-03-25T01:53:06;2.87;;;0.80;;
5795;SDS011;2924;51.458;7.046;2023-03-25T01:55:34;8.67;;;1.77;;
5795;SDS011;2924;51.458;7.046;2023-03-25T01:58:02;1.80;;;0.90;;
5795;SDS011;2924;51.458;7.046;2023-03-25T02:00:31;11.43;;;1.10;;
5795;SDS011;2924;51.458;7.046;2023-03-25T02:02:58;1.70;;;0.70;;
5795;SDS011;2924;51.458;7.046;2023-03-25T02:05:31;4.20;;;0.60;;
5795;SDS011;2924;51.458;7.046;2023-03-25T02:07:57;2.17;;;0.83;;
5795;SDS011;2924;51.458;7.046;2023-03-25T02:10:23;5.90;;;1.60;;
5795;SDS011;2924;51.458;7.046;2023-03-25T02:12:49;6.53;;;1.27;;
5795;SDS011;2924;51.458;7.046;2023-03-25T02:15:16;1.87;;;0.60;;
5795;SDS011;2924;51.458;7.046;2023-03-25T02:29:41;2.37;;;0.90;;
5795;SDS011;2924;51.458;7.046;2023-03-25T02:34:38;3.27;;;0.90;;
5795;SDS011;2924;51.458;7.046;2023-03-25T02:40:27;2.80;;;0.90;;
5795;SDS011;2924;51.458;7.046;2023-03-25T02:43:25;6.13;;;1.03;;
5795;SDS011;2924;51.458;7.046;2023-03-25T02:46:07;1.50;;;0.60;;
5795;SDS011;2924;51.458;7.046;2023-03-25T02:48:39;2.87;;;1.00;;
5795;SDS011;2924;51.458;7.046;2023-03-25T02:51:15;5.43;;;0.83;;
5795;SDS011;2924;51.458;7.046;2023-03-25T02:53:45;0.70;;;0.70;;
5795;SDS011;2924;51.458;7.046;2023-03-25T02:56:13;1.13;;;0.47;;
5795;SDS011;2924;51.458;7.046;2023-03-25T02:58:41;4.93;;;1.63;;
5795;SDS011;2924;51.458;7.046;2023-03-25T03:01:09;2.10;;;0.70;;
5795;SDS011;2924;51.458;7.046;2023-03-25T03:03:38;3.17;;;0.60;;
5795;SDS011;2924;51.458;7.046;2023-03-25T03:06:04;5.80;;;1.20;;
5795;SDS011;2924;51.458;7.046;2023-03-25T03:08:35;1.13;;;0.50;;
5795;SDS011;2924;51.458;7.046;2023-03-25T03:19:29;0.97;;;0.60;;
5795;SDS011;2924;51.458;7.046;2023-03-25T03:24:43;2.80;;;0.53;;
5795;SDS011;2924;51.458;7.046;2023-03-25T03:27:25;3.47;;;0.87;;
5795;SDS011;2924;51.458;7.046;2023-03-25T03:32:36;3.50;;;0.83;;
5795;SDS011;2924;51.458;7.046;2023-03-25T03:35:08;4.60;;;0.97;;
5795;SDS011;2924;51.458;7.046;2023-03-25T03:37:57;4.03;;;0.90;;
5795;SDS011;2924;51.458;7.046;2023-03-25T03:40:26;2.07;;;0.80;;
5795;SDS011;2924;51.458;7.046;2023-03-25T03:42:57;2.50;;;1.03;;
5795;SDS011;2924;51.458;7.046;2023-03-25T03:45:33;1.73;;;0.73;;
5795;SDS011;2924;51.458;7.046;2023-03-25T03:48:04;2.83;;;0.90;;
5795;SDS011;2924;51.458;7.046;2023-03-25T03:50:38;5.53;;;1.30;;
5795;SDS011;2924;51.458;7.046;2023-03-25T03:53:11;4.33;;;0.80;;
5795;SDS011;2924;51.458;7.046;2023-03-25T03:55:48;5.50;;;0.80;;
5795;SDS011;2924;51.458;7.046;2023-03-25T03:58:25;6.27;;;0.90;;
5795;SDS011;2924;51.458;7.046;2023-03-25T04:03:50;3.80;;;0.90;;
5795;SDS011;2924;51.458;7.046;2023-03-25T04:12:05;4.53;;;0.93;;
5795;SDS011;2924;51.458;7.046;2023-03-25T04:14:51;4.87;;;0.97;;
5795;SDS011;2924;51.458;7.046;2023-03-25T04:17:21;6.70;;;1.40;;
5795;SDS011;2924;51.458;7.046;2023-03-25T04:19:47;5.07;;;1.40;;
5795;SDS011;2924;51.458;7.046;2023-03-25T04:22:17;3.53;;;0.60;;
5795;SDS011;2924;51.458;7.046;2023-03-25T04:24:44;5.80;;;1.27;;
5795;SDS011;2924;51.458;7.046;2023-03-25T04:27:13;4.07;;;0.80;;
5795;SDS011;2924;51.458;7.046;2023-03-25T04:29:40;6.90;;;1.83;;
5795;SDS011;2924;51.458;7.046;2023-03-25T04:32:07;2.10;;;0.80;;
5795;SDS011;2924;51.458;7.046;2023-03-25T04:34:35;4.10;;;1.00;;
5795;SDS011;2924;51.458;7.046;2023-03-25T04:37:00;9.23;;;1.30;;
5795;SDS011;2924;51.458;7.046;2023-03-25T04:39:27;5.53;;;0.80;;
5795;SDS011;2924;51.458;7.046;2023-03-25T04:41:53;2.50;;;0.77;;
5795;SDS011;2924;51.458;7.046;2023-03-25T04:44:20;5.93;;;1.53;;
5795;SDS011;2924;51.458;7.046;2023-03-25T04:46:49;3.03;;;1.00;;
5795;SDS011;2924;51.458;7.046;2023-03-25T04:49:17;3.33;;;0.93;;
5795;SDS011;2924;51.458;7.046;2023-03-25T04:51:45;4.20;;;0.83;;
5795;SDS011;2924;51.458;7.046;2023-03-25T04:54:15;9.20;;;1.13;;
5795;SDS011;2924;51.458;7.046;2023-03-25T04:56:47;3.33;;;1.27;;
5795;SDS011;2924;51.458;7.046;2023-03-25T04:59:15;5.13;;;1.30;;
5795;SDS011;2924;51.458;7.046;2023-03-25T05:01:41;5.93;;;0.97;;
5795;SDS011;2924;51.458;7.046;2023-03-25T05:04:09;6.70;;;1.23;;
5795;SDS011;2924;51.458;7.046;2023-03-25T05:06:38;14.53;;;1.63;;
5795;SDS011;2924;51.458;7.046;2023-03-25T05:09:06;16.33;;;2.30;;
5795;SDS011;2924;51.458;7.046;2023-03-25T05:11:34;2.10;;;1.03;;
5795;SDS011;2924;51.458;7.046;2023-03-25T05:14:03;4.97;;;1.00;;
5795;SDS011;2924;51.458;7.046;2023-03-25T05:16:29;2.77;;;0.73;;
5795;SDS011;2924;51.458;7.046;2023-03-25T05:18:55;5.80;;;1.30;;
5795;SDS011;2924;51.458;7.046;2023-03-25T05:21:21;4.93;;;1.47;;
5795;SDS011;2924;51.458;7.046;2023-03-25T05:23:46;9.83;;;1.47;;
5795;SDS011;2924;51.458;7.046;2023-03-25T05:26:12;4.43;;;1.03;;
5795;SDS011;2924;51.458;7.046;2023-03-25T05:28:38;5.37;;;0.87;;
5795;SDS011;2924;51.458;7.046;2023-03-25T05:31:04;5.10;;;0.80;;
5795;SDS011;2924;51.458;7.046;2023-03-25T05:33:32;8.33;;;0.90;;
5795;SDS011;2924;51.458;7.046;2023-03-25T05:35:59;2.80;;;1.03;;
5795;SDS011;2924;51.458;7.046;2023-03-25T05:38:25;6.23;;;1.47;;
5795;SDS011;2924;51.458;7.046;2023-03-25T05:40:51;7.00;;;0.70;;
5795;SDS011;2924;51.458;7.046;2023-03-25T05:43:16;6.20;;;1.07;;
5795;SDS011;2924;51.458;7.046;2023-03-25T05:45:46;6.07;;;1.10;;
5795;SDS011;2924;51.458;7.046;2023-03-25T05:48:12;4.90;;;1.27;;
5795;SDS011;2924;51.458;7.046;2023-03-25T05:50:38;2.93;;;1.00;;
5795;SDS011;2924;51.458;7.046;2023-03-25T05:53:07;7.33;;;1.43;;
5795;SDS011;2924;51.458;7.046;2023-03-25T05:55:37;5.80;;;0.90;;
5795;SDS011;2924;51.458;7.046;2023-03-25T05:58:03;4.53;;;1.10;;
5795;SDS011;2924;51.458;7.046;2023-03-25T06:00:29;5.87;;;0.87;;
5795;SDS011;2924;51.458;7.046;2023-03-25T06:02:56;4.60;;;1.10;;
5795;SDS011;2924;51.458;7.046;2023-03-25T06:05:23;6.77;;;1.10;;
5795;SDS011;2924;51.458;7.046;2023-03-25T06:07:50;6.07;;;1.23;;
5795;SDS011;2924;51.458;7.046;2023-03-25T06:10:20;8.03;;;0.70;;
5795;SDS011;2924;51.458;7.046;2023-03-25T06:12:46;8.80;;;2.00;;
5795;SDS011;2924;51.458;7.046;2023-03-25T06:15:15;5.93;;;1.27;;
5795;SDS011;2924;51.458;7.046;2023-03-25T06:17:57;3.37;;;0.90;;
5795;SDS011;2924;51.458;7.046;2023-03-25T06:20:23;2.97;;;0.93;;
5795;SDS011;2924;51.458;7.046;2023-03-25T06:22:49;10.33;;;1.50;;
5795;SDS011;2924;51.458;7.046;2023-03-25T06:25:15;6.03;;;2.03;;
5795;SDS011;2924;51.458;7.046;2023-03-25T06:27:43;4.90;;;1.07;;
5795;SDS011;2924;51.458;7.046;2023-03-25T06:30:15;6.00;;;1.47;;
5795;SDS011;2924;51.458;7.046;2023-03-25T06:32:42;8.90;;;1.63;;
5795;SDS011;2924;51.458;7.046;2023-03-25T06:35:09;8.20;;;1.67;;
5795;SDS011;2924;51.458;7.046;2023-03-25T06:37:35;8.10;;;1.27;;
5795;SDS011;2924;51.458;7.046;2023-03-25T06:40:02;9.83;;;1.57;;
5795;SDS011;2924;51.458;7.046;2023-03-25T06:42:29;4.50;;;0.90;;
5795;SDS011;2924;51.458;7.046;2023-03-25T06:44:55;3.57;;;0.80;;
5795;SDS011;2924;51.458;7.046;2023-03-25T06:47:20;3.70;;;0.90;;
5795;SDS011;2924;51.458;7.046;2023-03-25T06:49:46;28.33;;;1.70;;
5795;SDS011;2924;51.458;7.046;2023-03-25T06:52:12;4.20;;;1.13;;
5795;SDS011;2924;51.458;7.046;2023-03-25T06:54:38;11.10;;;0.90;;
5795;SDS011;2924;51.458;7.046;2023-03-25T06:57:04;6.80;;;1.70;;
5795;SDS011;2924;51.458;7.046;2023-03-25T06:59:30;5.63;;;2.10;;
5795;SDS011;2924;51.458;7.046;2023-03-25T07:01:56;2.40;;;0.60;;
5795;SDS011;2924;51.458;7.046;2023-03-25T07:04:21;7.60;;;1.60;;
5795;SDS011;2924;51.458;7.046;2023-03-25T07:06:47;2.43;;;0.83;;
5795;SDS011;2924;51.458;7.046;2023-03-25T07:09:13;6.17;;;1.20;;
5795;SDS011;2924;51.458;7.046;2023-03-25T07:11:39;6.93;;;1.30;;
5795;SDS011;2924;51.458;7.046;2023-03-25T07:14:05;8.60;;;2.00;;
5795;SDS011;2924;51.458;7.046;2023-03-25T07:16:30;14.73;;;1.30;;
5795;SDS011;2924;51.458;7.046;2023-03-25T07:18:56;4.80;;;1.37;;
5795;SDS011;2924;51.458;7.046;2023-03-25T07:21:23;7.70;;;1.60;;
5795;SDS011;2924;51.458;7.046;2023-03-25T07:23:49;10.00;;;1.47;;
5795;SDS011;2924;51.458;7.046;2023-03-25T07:26:15;8.87;;;1.63;;
5795;SDS011;2924;51.458;7.046;2023-03-25T07:28:41;4.07;;;1.47;;
5795;SDS011;2924;51.458;7.046;2023-03-25T07:31:07;5.23;;;1.50;;
5795;SDS011;2924;51.458;7.046;2023-03-25T07:33:37;4.00;;;1.10;;
5795;SDS011;2924;51.458;7.046;2023-03-25T07:36:03;4.27;;;1.20;;
5795;SDS011;2924;51.458;7.046;2023-03-25T07:38:30;4.70;;;0.90;;
5795;SDS011;2924;51.458;7.046;2023-03-25T07:40:56;5.37;;;1.20;;
5795;SDS011;2924;51.458;7.046;2023-03-25T07:43:22;4.93;;;1.10;;
5795;SDS011;2924;51.458;7.046;2023-03-25T07:45:47;7.73;;;1.93;;
5795;SDS011;2924;51.458;7.046;2023-03-25T07:48:13;8.00;;;2.03;;
5795;SDS011;2924;51.458;7.046;2023-03-25T07:50:40;7.83;;;1.80;;
5795;SDS011;2924;51.458;7.046;2023-03-25T07:53:07;9.50;;;1.50;;
5795;SDS011;2924;51.458;7.046;2023-03-25T07:55:33;6.63;;;1.20;;
5795;SDS011;2924;51.458;7.046;2023-03-25T07:57:58;5.60;;;1.70;;
5795;SDS011;2924;51.458;7.046;2023-03-25T08:00:26;4.53;;;1.30;;
5795;SDS011;2924;51.458;7.046;2023-03-25T08:02:52;15.97;;;2.60;;
5795;SDS011;2924;51.458;7.046;2023-03-25T08:05:18;5.93;;;1.30;;
5795;SDS011;2924;51.458;7.046;2023-03-25T08:07:46;5.53;;;1.23;;
5795;SDS011;2924;51.458;7.046;2023-03-25T08:10:13;4.77;;;2.23;;
5795;SDS011;2924;51.458;7.046;2023-03-25T08:12:39;5.03;;;1.77;;
5795;SDS011;2924;51.458;7.046;2023-03-25T08:15:06;16.73;;;1.90;;
5795;SDS011;2924;51.458;7.046;2023-03-25T08:17:36;10.33;;;2.00;;
5795;SDS011;2924;51.458;7.046;2023-03-25T08:20:03;5.47;;;1.93;;
5795;SDS011;2924;51.458;7.046;2023-03-25T08:22:29;6.77;;;1.60;;
5795;SDS011;2924;51.458;7.046;2023-03-25T08:24:56;11.83;;;1.93;;
5795;SDS011;2924;51.458;7.046;2023-03-25T08:27:21;4.30;;;1.10;;
5795;SDS011;2924;51.458;7.046;2023-03-25T08:29:47;6.53;;;1.43;;
5795;SDS011;2924;51.458;7.046;2023-03-25T08:32:21;7.67;;;1.30;;
5795;SDS011;2924;51.458;7.046;2023-03-25T08:34:47;8.90;;;1.70;;
5795;SDS011;2924;51.458;7.046;2023-03-25T08:37:13;7.73;;;1.90;;
5795;SDS011;2924;51.458;7.046;2023-03-25T08:39:39;5.73;;;1.30;;
5795;SDS011;2924;51.458;7.046;2023-03-25T08:42:06;11.53;;;1.93;;
5795;SDS011;2924;51.458;7.046;2023-03-25T08:44:32;12.40;;;2.73;;
5795;SDS011;2924;51.458;7.046;2023-03-25T08:46:58;6.87;;;1.70;;
5795;SDS011;2924;51.458;7.046;2023-03-25T08:49:23;7.47;;;1.67;;
5795;SDS011;2924;51.458;7.046;2023-03-25T08:51:49;7.33;;;1.70;;
5795;SDS011;2924;51.458;7.046;2023-03-25T08:54:15;3.53;;;1.50;;
5795;SDS011;2924;51.458;7.046;2023-03-25T08:56:41;5.60;;;2.30;;
5795;SDS011;2924;51.458;7.046;2023-03-25T08:59:06;3.47;;;1.10;;
5795;SDS011;2924;51.458;7.046;2023-03-25T09:01:32;6.70;;;1.30;;
5795;SDS011;2924;51.458;7.046;2023-03-25T09:03:57;12.23;;;1.93;;
5795;SDS011;2924;51.458;7.046;2023-03-25T09:06:23;7.10;;;1.53;;
5795;SDS011;2924;51.458;7.046;2023-03-25T09:08:49;13.73;;;2.30;;
5795;SDS011;2924;51.458;7.046;2023-03-25T09:11:14;13.43;;;2.03;;
5795;SDS011;2924;51.458;7.046;2023-03-25T09:13:41;10.83;;;1.53;;
5795;SDS011;2924;51.458;7.046;2023-03-25T09:16:07;6.27;;;1.40;;
5795;SDS011;2924;51.458;7.046;2023-03-25T09:18:33;7.87;;;1.70;;
5795;SDS011;2924;51.458;7.046;2023-03-25T09:21:00;6.40;;;1.73;;
5795;SDS011;2924;51.458;7.046;2023-03-25T09:23:26;10.13;;;1.57;;
5795;SDS011;2924;51.458;7.046;2023-03-25T09:25:52;5.93;;;1.60;;
5795;SDS011;2924;51.458;7.046;2023-03-25T09:28:18;11.23;;;4.03;;
5795;SDS011;2924;51.458;7.046;2023-03-25T09:30:44;15.37;;;2.70;;
5795;SDS011;2924;51.458;7.046;2023-03-25T09:33:09;10.00;;;1.63;;
5795;SDS011;2924;51.458;7.046;2023-03-25T09:35:36;12.50;;;2.47;;
5795;SDS011;2924;51.458;7.046;2023-03-25T09:38:03;6.43;;;1.83;;
5795;SDS011;2924;51.458;7.046;2023-03-25T09:40:29;9.20;;;1.83;;
5795;SDS011;2924;51.458;7.046;2023-03-25T09:43:03;9.60;;;2.30;;
5795;SDS011;2924;51.458;7.046;2023-03-25T09:45:51;10.93;;;2.13;;
5795;SDS011;2924;51.458;7.046;2023-03-25T09:48:30;11.70;;;1.57;;
5795;SDS011;2924;51.458;7.046;2023-03-25T09:51:22;14.83;;;2.53;;
5795;SDS011;2924;51.458;7.046;2023-03-25T09:53:49;9.10;;;2.00;;
5795;SDS011;2924;51.458;7.046;2023-03-25T09:56:23;7.97;;;1.37;;
5795;SDS011;2924;51.458;7.046;2023-03-25T09:59:14;9.00;;;1.93;;
5795;SDS011;2924;51.458;7.046;2023-03-25T10:02:06;5.57;;;1.50;;
5795;SDS011;2924;51.458;7.046;2023-03-25T10:10:05;9.53;;;1.80;;
5795;SDS011;2924;51.458;7.046;2023-03-25T10:13:03;9.33;;;1.83;;
5795;SDS011;2924;51.458;7.046;2023-03-25T10:15:37;9.13;;;2.33;;
5795;SDS011;2924;51.458;7.046;2023-03-25T10:18:30;8.63;;;3.73;;
5795;SDS011;2924;51.458;7.046;2023-03-25T10:23:45;15.37;;;2.00;;
5795;SDS011;2924;51.458;7.046;2023-03-25T10:29:11;19.20;;;2.67;;
5795;SDS011;2924;51.458;7.046;2023-03-25T10:31:49;11.83;;;2.00;;
5795;SDS011;2924;51.458;7.046;2023-03-25T10:34:25;5.47;;;1.33;;
5795;SDS011;2924;51.458;7.046;2023-03-25T10:36:59;23.33;;;2.70;;
5795;SDS011;2924;51.458;7.046;2023-03-25T10:39:30;4.77;;;1.83;;
5795;SDS011;2924;51.458;7.046;2023-03-25T10:42:03;13.87;;;2.50;;
5795;SDS011;2924;51.458;7.046;2023-03-25T10:44:48;7.50;;;1.60;;
5795;SDS011;2924;51.458;7.046;2023-03-25T10:47:16;6.80;;;2.20;;
5795;SDS011;2924;51.458;7.046;2023-03-25T10:49:45;7.07;;;1.50;;
5795;SDS011;2924;51.458;7.046;2023-03-25T10:52:12;15.93;;;2.00;;
5795;SDS011;2924;51.458;7.046;2023-03-25T10:54:39;11.97;;;1.80;;
5795;SDS011;2924;51.458;7.046;2023-03-25T10:57:08;14.33;;;2.57;;
5795;SDS011;2924;51.458;7.046;2023-03-25T10:59:57;4.70;;;1.27;;
5795;SDS011;2924;51.458;7.046;2023-03-25T11:02:27;6.00;;;1.30;;
5795;SDS011;2924;51.458;7.046;2023-03-25T11:04:55;7.87;;;1.43;;
5795;SDS011;2924;51.458;7.046;2023-03-25T11:07:26;14.67;;;1.60;;
5795;SDS011;2924;51.458;7.046;2023-03-25T11:12:40;5.57;;;1.27;;
5795;SDS011;2924;51.458;7.046;2023-03-25T11:15:14;5.73;;;1.17;;
5795;SDS011;2924;51.458;7.046;2023-03-25T11:18:38;3.43;;;1.10;;
5795;SDS011;2924;51.458;7.046;2023-03-25T11:20:54;6.33;;;1.60;;
5795;SDS011;2924;51.458;7.046;2023-03-25T11:23:25;10.23;;;2.07;;
5795;SDS011;2924;51.458;7.046;2023-03-25T11:26:00;7.23;;;1.70;;
5795;SDS011;2924;51.458;7.046;2023-03-25T11:28:41;5.33;;;1.90;;
5795;SDS011;2924;51.458;7.046;2023-03-25T11:33:43;5.40;;;1.50;;
5795;SDS011;2924;51.458;7.046;2023-03-25T11:36:11;5.13;;;1.07;;
5795;SDS011;2924;51.458;7.046;2023-03-25T11:38:44;4.07;;;0.80;;
5795;SDS011;2924;51.458;7.046;2023-03-25T11:41:11;7.70;;;1.50;;
5795;SDS011;2924;51.458;7.046;2023-03-25T11:43:38;4.73;;;1.50;;
5795;SDS011;2924;51.458;7.046;2023-03-25T11:48:41;7.83;;;1.97;;
5795;SDS011;2924;51.458;7.046;2023-03-25T11:51:15;9.17;;;1.50;;
5795;SDS011;2924;51.458;7.046;2023-03-25T11:56:28;6.97;;;1.63;;
5795;SDS011;2924;51.458;7.046;2023-03-25T11:59:00;4.60;;;1.23;;
5795;SDS011;2924;51.458;7.046;2023-03-25T12:01:40;7.10;;;2.00;;
5795;SDS011;2924;51.458;7.046;2023-03-25T12:04:22;8.87;;;1.77;;
5795;SDS011;2924;51.458;7.046;2023-03-25T12:09:17;15.03;;;1.97;;
5795;SDS011;2924;51.458;7.046;2023-03-25T12:41:14;7.37;;;1.60;;
5795;SDS011;2924;51.458;7.046;2023-03-25T12:44:03;4.33;;;1.37;;
5795;SDS011;2924;51.458;7.046;2023-03-25T12:54:57;10.17;;;2.10;;
5795;SDS011;2924;51.458;7.046;2023-03-25T13:08:53;7.17;;;1.80;;
5795;SDS011;2924;51.458;7.046;2023-03-25T13:11:50;7.77;;;2.10;;
5795;SDS011;2924;51.458;7.046;2023-03-25T13:14:24;14.33;;;2.40;;
5795;SDS011;2924;51.458;7.046;2023-03-25T13:16:51;7.00;;;1.90;;
5795;SDS011;2924;51.458;7.046;2023-03-25T13:19:25;9.40;;;2.10;;
5795;SDS011;2924;51.458;7.046;2023-03-25T13:21:55;2.33;;;1.17;;
5795;SDS011;2924;51.458;7.046;2023-03-25T13:27:19;4.63;;;1.50;;
5795;SDS011;2924;51.458;7.046;2023-03-25T13:29:50;5.53;;;1.67;;
5795;SDS011;2924;51.458;7.046;2023-03-25T13:32:31;5.70;;;1.33;;
5795;SDS011;2924;51.458;7.046;2023-03-25T13:35:04;6.23;;;1.40;;
5795;SDS011;2924;51.458;7.046;2023-03-25T13:37:37;5.67;;;1.17;;
5795;SDS011;2924;51.458;7.046;2023-03-25T13:45:16;4.90;;;0.83;;
5795;SDS011;2924;51.458;7.046;2023-03-25T13:47:51;3.90;;;1.00;;
5795;SDS011;2924;51.458;7.046;2023-03-25T13:50:29;5.47;;;1.50;;
5795;SDS011;2924;51.458;7.046;2023-03-25T13:53:01;4.03;;;0.87;;
5795;SDS011;2924;51.458;7.046;2023-03-25T13:55:54;4.43;;;1.20;;
5795;SDS011;2924;51.458;7.046;2023-03-25T13:58:45;2.60;;;1.10;;
5795;SDS011;2924;51.458;7.046;2023-03-25T14:07:03;3.13;;;1.07;;
5795;SDS011;2924;51.458;7.046;2023-03-25T14:12:35;5.90;;;1.03;;
5795;SDS011;2924;51.458;7.046;2023-03-25T14:15:23;4.37;;;1.20;;
5795;SDS011;2924;51.458;7.046;2023-03-25T14:18:19;4.87;;;1.17;;
5795;SDS011;2924;51.458;7.046;2023-03-25T14:20:45;6.13;;;0.87;;
5795;SDS011;2924;51.458;7.046;2023-03-25T14:23:14;3.40;;;0.93;;
5795;SDS011;2924;51.458;7.046;2023-03-25T14:28:17;6.43;;;1.33;;
5795;SDS011;2924;51.458;7.046;2023-03-25T14:39:37;5.77;;;1.70;;
5795;SDS011;2924;51.458;7.046;2023-03-25T14:41:59;5.53;;;1.40;;
5795;SDS011;2924;51.458;7.046;2023-03-25T14:44:32;5.87;;;1.40;;
5795;SDS011;2924;51.458;7.046;2023-03-25T14:46:58;3.23;;;0.40;;
5795;SDS011;2924;51.458;7.046;2023-03-25T14:49:26;4.20;;;1.03;;
5795;SDS011;2924;51.458;7.046;2023-03-25T14:52:18;1.67;;;0.60;;
5795;SDS011;2924;51.458;7.046;2023-03-25T14:54:54;1.00;;;0.90;;
5795;SDS011;2924;51.458;7.046;2023-03-25T14:57:21;3.60;;;0.80;;
5795;SDS011;2924;51.458;7.046;2023-03-25T14:59:53;1.67;;;0.70;;
5795;SDS011;2924;51.458;7.046;2023-03-25T15:02:26;2.20;;;1.00;;
5795;SDS011;2924;51.458;7.046;2023-03-25T15:04:57;3.77;;;1.40;;
5795;SDS011;2924;51.458;7.046;2023-03-25T15:07:44;7.67;;;2.10;;
5795;SDS011;2924;51.458;7.046;2023-03-25T15:10:38;8.90;;;1.40;;
5795;SDS011;2924;51.458;7.046;2023-03-25T15:13:08;10.77;;;1.90;;
5795;SDS011;2924;51.458;7.046;2023-03-25T15:18:09;8.47;;;1.97;;
5795;SDS011;2924;51.458;7.046;2023-03-25T15:20:36;5.30;;;2.27;;
5795;SDS011;2924;51.458;7.046;2023-03-25T15:23:19;7.27;;;1.83;;
5795;SDS011;2924;51.458;7.046;2023-03-25T15:25:53;7.13;;;2.07;;
5795;SDS011;2924;51.458;7.046;2023-03-25T15:31:02;10.83;;;3.20;;
5795;SDS011;2924;51.458;7.046;2023-03-25T15:33:54;5.00;;;1.93;;
5795;SDS011;2924;51.458;7.046;2023-03-25T15:36:43;4.57;;;1.63;;
5795;SDS011;2924;51.458;7.046;2023-03-25T15:45:28;8.70;;;1.30;;
5795;SDS011;2924;51.458;7.046;2023-03-25T15:48:11;6.50;;;1.17;;
5795;SDS011;2924;51.458;7.046;2023-03-25T15:56:15;7.60;;;2.10;;
5795;SDS011;2924;51.458;7.046;2023-03-25T16:01:19;9.37;;;2.40;;
5795;SDS011;2924;51.458;7.046;2023-03-25T16:04:11;6.47;;;1.93;;
5795;SDS011;2924;51.458;7.046;2023-03-25T16:06:40;4.70;;;1.00;;
5795;SDS011;2924;51.458;7.046;2023-03-25T16:09:10;6.50;;;1.70;;
5795;SDS011;2924;51.458;7.046;2023-03-25T16:11:43;6.90;;;1.50;;
5795;SDS011;2924;51.458;7.046;2023-03-25T16:14:12;8.90;;;1.77;;
5795;SDS011;2924;51.458;7.046;2023-03-25T16:16:40;6.83;;;1.33;;
5795;SDS011;2924;51.458;7.046;2023-03-25T16:19:38;6.20;;;1.47;;
5795;SDS011;2924;51.458;7.046;2023-03-25T16:22:03;4.77;;;2.00;;
5795;SDS011;2924;51.458;7.046;2023-03-25T16:24:41;4.90;;;1.30;;
5795;SDS011;2924;51.458;7.046;2023-03-25T16:27:09;15.97;;;1.70;;
5795;SDS011;2924;51.458;7.046;2023-03-25T16:29:36;2.83;;;1.10;;
5795;SDS011;2924;51.458;7.046;2023-03-25T16:32:03;13.50;;;1.60;;
5795;SDS011;2924;51.458;7.046;2023-03-25T16:34:33;8.07;;;2.23;;
5795;SDS011;2924;51.458;7.046;2023-03-25T16:37:02;10.90;;;2.80;;
5795;SDS011;2924;51.458;7.046;2023-03-25T16:39:31;6.47;;;2.07;;
5795;SDS011;2924;51.458;7.046;2023-03-25T16:42:01;12.03;;;2.10;;
5795;SDS011;2924;51.458;7.046;2023-03-25T16:44:31;9.10;;;2.00;;
5795;SDS011;2924;51.458;7.046;2023-03-25T16:46:57;7.40;;;2.37;;
5795;SDS011;2924;51.458;7.046;2023-03-25T16:49:27;14.93;;;2.20;;
5795;SDS011;2924;51.458;7.046;2023-03-25T16:51:55;8.33;;;2.00;;
5795;SDS011;2924;51.458;7.046;2023-03-25T16:54:26;7.33;;;1.63;;
5795;SDS011;2924;51.458;7.046;2023-03-25T16:56:54;8.37;;;1.97;;
5795;SDS011;2924;51.458;7.046;2023-03-25T16:59:26;13.93;;;2.20;;
5795;SDS011;2924;51.458;7.046;2023-03-25T17:02:00;8.53;;;2.20;;
5795;SDS011;2924;51.458;7.046;2023-03-25T17:04:37;9.07;;;1.93;;
5795;SDS011;2924;51.458;7.046;2023-03-25T17:07:12;6.30;;;1.50;;
5795;SDS011;2924;51.458;7.046;2023-03-25T17:09:44;4.67;;;1.30;;
5795;SDS011;2924;51.458;7.046;2023-03-25T17:12:16;4.33;;;1.80;;
5795;SDS011;2924;51.458;7.046;2023-03-25T17:14:45;7.60;;;2.17;;
5795;SDS011;2924;51.458;7.046;2023-03-25T17:19:58;13.73;;;2.63;;
5795;SDS011;2924;51.458;7.046;2023-03-25T17:22:33;10.17;;;2.57;;
5795;SDS011;2924;51.458;7.046;2023-03-25T17:27:55;13.93;;;2.50;;
5795;SDS011;2924;51.458;7.046;2023-03-25T17:30:32;11.33;;;3.10;;
5795;SDS011;2924;51.458;7.046;2023-03-25T17:35:58;11.73;;;2.10;;
5795;SDS011;2924;51.458;7.046;2023-03-25T17:38:27;20.30;;;3.10;;
5795;SDS011;2924;51.458;7.046;2023-03-25T17:41:02;10.33;;;2.00;;
5795;SDS011;2924;51.458;7.046;2023-03-25T17:43:31;12.53;;;2.17;;
5795;SDS011;2924;51.458;7.046;2023-03-25T17:46:03;9.57;;;2.53;;
5795;SDS011;2924;51.458;7.046;2023-03-25T17:48:30;14.20;;;2.37;;
5795;SDS011;2924;51.458;7.046;2023-03-25T17:50:56;13.97;;;3.57;;
5795;SDS011;2924;51.458;7.046;2023-03-25T17:53:22;15.83;;;2.43;;
5795;SDS011;2924;51.458;7.046;2023-03-25T17:55:48;21.60;;;2.80;;
5795;SDS011;2924;51.458;7.046;2023-03-25T17:58:14;12.43;;;3.37;;
5795;SDS011;2924;51.458;7.046;2023-03-25T18:00:41;9.30;;;2.93;;
5795;SDS011;2924;51.458;7.046;2023-03-25T18:03:10;11.37;;;2.33;;
5795;SDS011;2924;51.458;7.046;2023-03-25T18:05:37;7.90;;;2.17;;
5795;SDS011;2924;51.458;7.046;2023-03-25T18:08:03;19.33;;;2.77;;
5795;SDS011;2924;51.458;7.046;2023-03-25T18:10:29;16.33;;;3.10;;
5795;SDS011;2924;51.458;7.046;2023-03-25T18:12:59;11.90;;;2.67;;
5795;SDS011;2924;51.458;7.046;2023-03-25T18:15:25;21.23;;;2.60;;
5795;SDS011;2924;51.458;7.046;2023-03-25T18:17:51;20.97;;;4.43;;
5795;SDS011;2924;51.458;7.046;2023-03-25T18:20:20;14.97;;;3.20;;
5795;SDS011;2924;51.458;7.046;2023-03-25T18:22:50;11.30;;;2.57;;